createdAt,value
2022-12-16T00:00:51.039Z,-3.84
2022-12-16T00:03:30.046Z,-3.89
2022-12-16T00:06:06.252Z,-3.85
2022-12-16T00:08:36.187Z,-3.76
2022-12-16T00:11:07.882Z,-3.78
2022-12-16T00:13:37.422Z,-3.88
2022-12-16T00:16:10.140Z,-3.86
2022-12-16T00:18:43.253Z,-3.87
2022-12-16T00:21:18.833Z,-3.86
2022-12-16T00:23:47.275Z,-3.83
2022-12-16T00:26:15.954Z,-3.80
2022-12-16T00:28:46.549Z,-3.82
2022-12-16T00:31:18.166Z,-3.72
2022-12-16T00:33:49.753Z,-3.69
2022-12-16T00:36:18.361Z,-3.73
2022-12-16T00:38:46.233Z,-3.75
2022-12-16T00:41:16.238Z,-3.71
2022-12-16T00:43:44.071Z,-3.77
2022-12-16T00:46:18.091Z,-3.72
2022-12-16T00:48:47.389Z,-3.74
2022-12-16T00:51:15.277Z,-3.76
2022-12-16T00:53:43.011Z,-3.69
2022-12-16T00:56:12.466Z,-3.73
2022-12-16T00:58:40.344Z,-3.73
2022-12-16T01:01:09.146Z,-3.74
2022-12-16T01:03:37.590Z,-3.64
2022-12-16T01:06:10.676Z,-3.64
2022-12-16T01:08:38.270Z,-3.67
2022-12-16T01:11:06.159Z,-3.62
2022-12-16T01:13:34.398Z,-3.59
2022-12-16T01:16:02.905Z,-3.60
2022-12-16T01:18:30.490Z,-3.57
2022-12-16T01:21:03.808Z,-3.53
2022-12-16T01:23:33.521Z,-3.58
2022-12-16T01:26:02.499Z,-3.54
2022-12-16T01:28:30.694Z,-3.55
2022-12-16T01:31:02.116Z,-3.60
2022-12-16T01:33:30.917Z,-3.57
2022-12-16T01:36:02.325Z,-3.61
2022-12-16T01:38:30.447Z,-3.48
2022-12-16T01:40:59.711Z,-3.55
2022-12-16T01:43:29.451Z,-3.62
2022-12-16T01:46:00.383Z,-3.55
2022-12-16T01:48:35.614Z,-3.55
2022-12-16T01:51:07.145Z,-3.48
2022-12-16T01:53:37.180Z,-3.44
2022-12-16T01:56:06.919Z,-3.46
2022-12-16T01:58:36.180Z,-3.44
2022-12-16T02:01:04.383Z,-3.45
2022-12-16T02:03:35.249Z,-3.37
2022-12-16T02:06:03.557Z,-3.39
2022-12-16T02:08:31.360Z,-3.34
2022-12-16T02:11:12.479Z,-3.34
2022-12-16T02:13:50.204Z,-3.31
2022-12-16T02:16:22.258Z,-3.32
2022-12-16T02:18:54.768Z,-3.38
2022-12-16T02:21:39.478Z,-3.38
2022-12-16T02:24:36.352Z,-3.37
2022-12-16T02:27:40.934Z,-3.34
2022-12-16T02:30:41.611Z,-3.35
2022-12-16T02:33:22.170Z,-3.39
2022-12-16T02:35:54.886Z,-3.40
2022-12-16T02:38:25.257Z,-3.37
2022-12-16T02:40:56.894Z,-3.39
2022-12-16T02:43:45.590Z,-3.38
2022-12-16T02:46:14.604Z,-3.37
2022-12-16T02:48:42.201Z,-3.32
2022-12-16T02:51:10.392Z,-3.34
2022-12-16T02:53:40.208Z,-3.40
2022-12-16T02:56:18.464Z,-3.41
2022-12-16T02:58:48.815Z,-3.45
2022-12-16T03:01:22.514Z,-3.43
2022-12-16T03:03:55.980Z,-3.44
2022-12-16T03:06:24.983Z,-3.41
2022-12-16T03:08:55.289Z,-3.49
2022-12-16T03:11:23.058Z,-3.52
2022-12-16T03:13:52.805Z,-3.51
2022-12-16T03:16:22.970Z,-3.52
2022-12-16T03:18:54.964Z,-3.56
2022-12-16T03:21:23.657Z,-3.53
2022-12-16T03:23:58.607Z,-3.53
2022-12-16T03:26:29.906Z,-3.54
2022-12-16T03:29:02.293Z,-3.65
2022-12-16T03:31:39.510Z,-3.69
2022-12-16T03:34:12.595Z,-3.86
2022-12-16T03:36:40.920Z,-3.85
2022-12-16T03:39:09.962Z,-4.06
2022-12-16T03:41:37.774Z,-4.23
2022-12-16T03:44:05.652Z,-4.41
2022-12-16T03:46:34.614Z,-4.59
2022-12-16T03:49:02.375Z,-4.66
2022-12-16T03:51:29.922Z,-4.69
2022-12-16T03:53:57.553Z,-5.00
2022-12-16T03:56:25.100Z,-5.25
2022-12-16T03:58:52.654Z,-5.26
2022-12-16T04:01:20.553Z,-5.40
2022-12-16T04:03:49.611Z,-5.43
2022-12-16T04:06:18.833Z,-5.62
2022-12-16T04:08:46.852Z,-5.77
2022-12-16T04:11:32.044Z,-6.00
2022-12-16T04:14:17.361Z,-6.05
2022-12-16T04:17:14.145Z,-6.32
2022-12-16T04:20:04.612Z,-6.08
2022-12-16T04:22:52.783Z,-6.05
2022-12-16T04:25:22.699Z,-6.23
2022-12-16T04:27:50.336Z,-6.45
2022-12-16T04:30:19.961Z,-6.33
2022-12-16T04:33:05.901Z,-6.41
2022-12-16T04:35:52.444Z,-6.62
2022-12-16T04:38:37.697Z,-6.70
2022-12-16T04:41:23.096Z,-6.83
2022-12-16T04:44:08.413Z,-6.87
2022-12-16T04:46:53.813Z,-6.84
2022-12-16T04:49:39.223Z,-6.79
2022-12-16T04:52:25.886Z,-6.78
2022-12-16T04:55:11.211Z,-6.63
2022-12-16T04:57:58.941Z,-6.51
2022-12-16T05:00:49.651Z,-6.28
2022-12-16T05:03:35.515Z,-6.45
2022-12-16T05:06:20.961Z,-6.67
2022-12-16T05:09:07.558Z,-7.08
2022-12-16T05:11:52.572Z,-7.34
2022-12-16T05:14:37.891Z,-7.61
2022-12-16T05:17:23.176Z,-7.68
2022-12-16T05:20:09.008Z,-7.76
2022-12-16T05:22:59.831Z,-7.69
2022-12-16T05:25:55.315Z,-7.73
2022-12-16T05:28:40.410Z,-7.76
2022-12-16T05:31:25.697Z,-7.79
2022-12-16T05:34:10.992Z,-7.89
2022-12-16T05:36:56.228Z,-7.82
2022-12-16T05:39:41.552Z,-8.00
2022-12-16T05:42:28.345Z,-7.99
2022-12-16T05:45:13.572Z,-8.09
2022-12-16T05:47:58.902Z,-8.02
2022-12-16T05:50:44.063Z,-8.24
2022-12-16T05:53:29.475Z,-8.24
2022-12-16T05:56:14.654Z,-8.18
2022-12-16T05:59:01.172Z,-8.14
2022-12-16T06:01:45.859Z,-8.06
2022-12-16T06:04:31.214Z,-7.96
2022-12-16T06:07:16.447Z,-8.02
2022-12-16T06:10:01.762Z,-8.21
2022-12-16T06:12:47.048Z,-8.37
2022-12-16T06:15:33.782Z,-8.48
2022-12-16T06:18:19.118Z,-8.34
2022-12-16T06:21:15.907Z,-8.29
2022-12-16T06:24:01.269Z,-8.25
2022-12-16T06:26:46.583Z,-8.23
2022-12-16T06:29:31.754Z,-8.17
2022-12-16T06:32:18.213Z,-8.24
2022-12-16T06:35:03.683Z,-8.33
2022-12-16T06:37:48.871Z,-8.29
2022-12-16T06:40:34.182Z,-8.12
2022-12-16T06:43:19.437Z,-8.12
2022-12-16T06:46:00.891Z,-8.17
2022-12-16T06:48:47.477Z,-8.04
2022-12-16T06:51:32.665Z,-8.23
2022-12-16T06:54:17.895Z,-8.32
2022-12-16T06:57:03.094Z,-8.33
2022-12-16T06:59:48.517Z,-8.32
2022-12-16T07:02:33.995Z,-8.47
2022-12-16T07:05:20.484Z,-8.45
2022-12-16T07:08:06.828Z,-8.48
2022-12-16T07:10:52.074Z,-8.58
2022-12-16T07:13:40.447Z,-8.51
2022-12-16T07:16:25.819Z,-8.55
2022-12-16T07:19:11.160Z,-8.50
2022-12-16T07:21:57.796Z,-8.36
2022-12-16T07:24:57.640Z,-8.44
2022-12-16T07:27:42.855Z,-8.67
2022-12-16T07:30:29.356Z,-8.64
2022-12-16T07:33:29.140Z,-8.76
2022-12-16T07:36:14.432Z,-8.79
2022-12-16T07:39:01.033Z,-8.83
2022-12-16T07:41:46.415Z,-8.73
2022-12-16T07:44:31.853Z,-8.71
2022-12-16T07:47:17.223Z,-8.69
2022-12-16T07:50:02.615Z,-8.82
2022-12-16T07:52:47.822Z,-8.80
2022-12-16T07:55:34.696Z,-8.74
2022-12-16T07:58:20.107Z,-8.72
2022-12-16T08:01:09.394Z,-8.63
2022-12-16T08:03:55.194Z,-8.65
2022-12-16T08:06:41.062Z,-8.70
2022-12-16T08:09:26.404Z,-8.72
2022-12-16T08:12:13.090Z,-8.63
2022-12-16T08:14:58.352Z,-8.60
2022-12-16T08:17:43.868Z,-8.56
2022-12-16T08:20:29.494Z,-8.50
2022-12-16T08:23:14.856Z,-8.56
2022-12-16T08:25:56.323Z,-8.54
2022-12-16T08:28:45.277Z,-8.36
2022-12-16T08:31:30.347Z,-8.22
2022-12-16T08:34:15.622Z,-8.07
2022-12-16T08:37:00.898Z,-8.03
2022-12-16T08:39:51.311Z,-8.03
2022-12-16T08:42:49.937Z,-7.94
2022-12-16T08:45:39.726Z,-7.83
2022-12-16T08:48:25.551Z,-7.69
2022-12-16T08:51:10.730Z,-7.67
2022-12-16T08:53:55.834Z,-7.63
2022-12-16T08:56:44.540Z,-7.59
2022-12-16T08:59:30.027Z,-7.48
2022-12-16T09:02:13.217Z,-7.40
2022-12-16T09:04:58.670Z,-7.35
2022-12-16T09:07:44.087Z,-7.26
2022-12-16T09:10:31.231Z,-7.19
2022-12-16T09:13:24.505Z,-7.10
2022-12-16T09:16:14.277Z,-7.03
2022-12-16T09:19:04.388Z,-7.01
2022-12-16T09:21:49.555Z,-6.93
2022-12-16T09:24:38.925Z,-6.84
2022-12-16T09:27:24.321Z,-6.77
2022-12-16T09:30:09.574Z,-6.67
2022-12-16T09:32:59.739Z,-6.49
2022-12-16T09:35:46.401Z,-6.33
2022-12-16T09:38:31.839Z,-6.26
2022-12-16T09:41:44.737Z,-6.19
2022-12-16T09:44:38.745Z,-6.11
2022-12-16T09:47:28.978Z,-5.97
2022-12-16T09:50:20.969Z,-5.73
2022-12-16T09:53:12.423Z,-5.57
2022-12-16T09:55:59.408Z,-5.48
2022-12-16T09:58:46.560Z,-5.26
2022-12-16T10:01:32.471Z,-5.15
2022-12-16T10:04:17.616Z,-4.96
2022-12-16T10:07:04.729Z,-4.74
2022-12-16T10:09:59.233Z,-4.61
2022-12-16T10:12:57.489Z,-4.46
2022-12-16T10:16:02.007Z,-4.22
2022-12-16T10:18:57.747Z,-4.10
2022-12-16T10:21:47.155Z,-4.01
2022-12-16T10:24:42.549Z,-3.80
2022-12-16T10:27:32.649Z,-3.48
2022-12-16T10:30:18.924Z,-3.27
2022-12-16T10:33:05.977Z,-3.09
2022-12-16T10:35:55.560Z,-2.94
2022-12-16T10:38:42.511Z,-2.82
2022-12-16T10:41:28.322Z,-2.64
2022-12-16T10:44:16.039Z,-2.54
2022-12-16T10:47:01.408Z,-2.40
2022-12-16T10:49:52.311Z,-2.35
2022-12-16T10:52:39.963Z,-2.22
2022-12-16T10:55:34.155Z,-2.14
2022-12-16T10:58:25.154Z,-2.05
2022-12-16T11:01:11.491Z,-2.00
2022-12-16T11:03:58.228Z,-1.97
2022-12-16T11:06:45.505Z,-1.92
2022-12-16T11:09:41.525Z,-1.82
2022-12-16T11:12:39.104Z,-1.75
2022-12-16T11:15:42.299Z,-1.70
2022-12-16T11:18:31.716Z,-1.62
2022-12-16T11:21:30.811Z,-1.64
2022-12-16T11:24:33.370Z,-1.62
2022-12-16T11:27:19.672Z,-1.48
2022-12-16T11:30:09.165Z,-1.48
2022-12-16T11:32:56.229Z,-1.40
2022-12-16T11:35:46.448Z,-1.40
2022-12-16T11:38:36.119Z,-1.34
2022-12-16T11:41:28.053Z,-1.31
2022-12-16T11:48:47.435Z,-1.17
2022-12-16T11:51:14.766Z,-1.16
2022-12-16T11:54:04.329Z,-1.12
2022-12-16T11:56:53.119Z,-1.06
2022-12-16T11:59:44.459Z,-0.99
2022-12-16T12:02:38.994Z,-0.99
2022-12-16T12:05:24.489Z,-0.89
2022-12-16T12:08:15.394Z,-0.99
2022-12-16T12:11:21.297Z,-1.06
2022-12-16T12:14:18.198Z,-1.00
2022-12-16T12:17:13.090Z,-0.95
2022-12-16T12:20:07.413Z,-0.97
2022-12-16T12:22:54.874Z,-0.91
2022-12-16T12:25:48.370Z,-0.92
2022-12-16T12:28:50.825Z,-0.86
2022-12-16T12:31:55.913Z,-0.86
2022-12-16T12:34:46.029Z,-0.78
2022-12-16T12:37:36.687Z,-0.76
2022-12-16T12:40:32.780Z,-0.77
2022-12-16T12:43:21.008Z,-0.75
2022-12-16T12:46:13.662Z,-0.76
2022-12-16T12:49:03.174Z,-0.71
2022-12-16T12:51:54.071Z,-0.72
2022-12-16T12:54:52.467Z,-0.66
2022-12-16T12:57:50.139Z,-0.72
2022-12-16T13:00:49.408Z,-0.69
2022-12-16T13:03:41.211Z,-0.69
2022-12-16T13:06:31.435Z,-0.75
2022-12-16T13:09:18.036Z,-0.67
2022-12-16T13:12:41.051Z,-0.67
2022-12-16T13:15:29.665Z,-0.59
2022-12-16T13:18:51.316Z,-0.58
2022-12-16T13:22:03.696Z,-0.59
2022-12-16T13:24:56.069Z,-0.60
2022-12-16T13:27:41.862Z,-0.58
2022-12-16T13:30:39.604Z,-0.56
2022-12-16T13:33:31.885Z,-0.55
2022-12-16T13:36:18.408Z,-0.53
2022-12-16T13:39:06.749Z,-0.55
2022-12-16T13:42:09.023Z,-0.54
2022-12-16T13:45:16.491Z,-0.55
2022-12-16T13:48:18.159Z,-0.57
2022-12-16T13:51:04.653Z,-0.59
2022-12-16T13:53:51.443Z,-0.58
2022-12-16T13:56:42.363Z,-0.54
2022-12-16T13:59:34.374Z,-0.58
2022-12-16T14:02:22.480Z,-0.62
2022-12-16T14:05:10.388Z,-0.61
2022-12-16T14:08:03.079Z,-0.60
2022-12-16T14:10:50.215Z,-0.59
2022-12-16T14:13:40.117Z,-0.58
2022-12-16T14:16:31.381Z,-0.57
2022-12-16T14:19:30.247Z,-0.57
2022-12-16T14:22:28.100Z,-0.55
2022-12-16T14:25:27.861Z,-0.51
2022-12-16T14:28:15.997Z,-0.56
2022-12-16T14:31:05.502Z,-0.69
2022-12-16T14:33:53.376Z,-0.72
2022-12-16T14:36:42.257Z,-0.71
2022-12-16T14:39:33.751Z,-0.68
2022-12-16T14:42:19.038Z,-0.75
2022-12-16T14:45:05.046Z,-0.80
2022-12-16T14:47:56.226Z,-0.81
2022-12-16T14:50:45.602Z,-0.80
2022-12-16T14:53:36.601Z,-0.93
2022-12-16T14:56:34.742Z,-0.87
2022-12-16T14:59:27.669Z,-0.85
2022-12-16T15:02:14.660Z,-0.85
2022-12-16T15:05:07.662Z,-0.90
2022-12-16T15:07:54.733Z,-0.95
2022-12-16T15:10:45.242Z,-0.96
2022-12-16T15:13:42.467Z,-0.99
2022-12-16T15:16:34.329Z,-1.08
2022-12-16T15:19:20.467Z,-1.14
2022-12-16T15:22:07.167Z,-1.08
2022-12-16T15:24:54.410Z,-1.17
2022-12-16T15:27:43.746Z,-1.16
2022-12-16T15:30:56.198Z,-1.17
2022-12-16T15:33:42.512Z,-1.20
2022-12-16T15:36:46.420Z,-1.24
2022-12-16T15:39:53.474Z,-1.28
2022-12-16T15:42:46.034Z,-1.25
2022-12-16T15:45:40.554Z,-1.37
2022-12-16T15:48:32.240Z,-1.35
2022-12-16T15:51:17.547Z,-1.48
2022-12-16T15:54:10.249Z,-1.45
2022-12-16T15:57:04.145Z,-1.47
2022-12-16T15:59:51.185Z,-1.50
2022-12-16T16:02:40.563Z,-1.56
2022-12-16T16:05:30.838Z,-1.57
2022-12-16T16:08:21.662Z,-1.56
2022-12-16T16:11:10.623Z,-1.61
2022-12-16T16:14:04.257Z,-1.72
2022-12-16T16:16:51.536Z,-1.77
2022-12-16T16:19:41.625Z,-1.79
2022-12-16T16:22:29.959Z,-1.79
2022-12-16T16:25:17.316Z,-1.78
2022-12-16T16:28:02.444Z,-1.75
2022-12-16T16:30:49.091Z,-1.76
2022-12-16T16:33:34.682Z,-1.74
2022-12-16T16:36:20.247Z,-1.84
2022-12-16T16:39:17.055Z,-1.84
2022-12-16T16:42:02.007Z,-1.83
2022-12-16T16:44:47.702Z,-1.85
2022-12-16T16:47:37.153Z,-1.94
2022-12-16T16:50:23.145Z,-1.93
2022-12-16T16:53:08.370Z,-2.02
2022-12-16T16:55:56.363Z,-2.24
2022-12-16T16:58:45.273Z,-2.36
2022-12-16T17:01:31.371Z,-2.30
2022-12-16T17:04:18.178Z,-2.34
2022-12-16T17:07:09.298Z,-2.52
2022-12-16T17:10:04.681Z,-2.60
2022-12-16T17:12:51.720Z,-2.57
2022-12-16T17:15:40.089Z,-2.59
2022-12-16T17:18:27.817Z,-2.64
2022-12-16T17:21:14.474Z,-2.79
2022-12-16T17:24:00.563Z,-3.21
2022-12-16T17:26:47.981Z,-3.35
2022-12-16T17:29:46.172Z,-2.99
2022-12-16T17:32:31.326Z,-3.81
2022-12-16T17:35:16.945Z,-4.04
2022-12-16T17:38:03.582Z,-4.39
2022-12-16T17:40:48.825Z,-4.41
2022-12-16T17:43:34.463Z,-4.49
2022-12-16T17:46:21.061Z,-4.52
2022-12-16T17:49:11.714Z,-4.49
2022-12-16T17:51:59.498Z,-4.47
2022-12-16T17:54:49.897Z,-4.53
2022-12-16T17:57:35.396Z,-4.43
2022-12-16T18:00:20.931Z,-4.23
2022-12-16T18:03:06.864Z,-4.44
2022-12-16T18:05:52.402Z,-4.61
2022-12-16T18:08:37.545Z,-4.65
2022-12-16T18:11:24.111Z,-4.53
2022-12-16T18:14:09.412Z,-4.86
2022-12-16T18:16:54.854Z,-4.82
2022-12-16T18:19:44.000Z,-4.63
2022-12-16T18:22:31.605Z,-4.56
2022-12-16T18:25:19.134Z,-4.71
2022-12-16T18:28:05.937Z,-4.93
2022-12-16T18:30:51.383Z,-5.06
2022-12-16T18:33:36.982Z,-5.17
2022-12-16T18:36:24.883Z,-5.20
2022-12-16T18:39:10.272Z,-5.40
2022-12-16T18:42:00.452Z,-5.56
2022-12-16T18:44:57.532Z,-5.56
2022-12-16T18:47:52.312Z,-5.54
2022-12-16T18:50:38.364Z,-5.53
2022-12-16T18:53:23.956Z,-5.50
2022-12-16T18:56:19.212Z,-5.68
2022-12-16T18:59:04.761Z,-5.60
2022-12-16T19:01:51.491Z,-5.54
2022-12-16T19:04:38.363Z,-5.58
2022-12-16T19:07:23.755Z,-5.63
2022-12-16T19:10:09.111Z,-5.76
2022-12-16T19:12:56.017Z,-5.98
2022-12-16T19:15:41.935Z,-5.84
2022-12-16T19:18:30.003Z,-5.78
2022-12-16T19:21:15.642Z,-5.76
2022-12-16T19:24:01.528Z,-5.75
2022-12-16T19:26:46.830Z,-5.92
2022-12-16T19:29:32.419Z,-6.04
2022-12-16T19:32:17.764Z,-6.17
2022-12-16T19:35:04.580Z,-6.42
2022-12-16T19:37:50.263Z,-6.56
2022-12-16T19:40:35.451Z,-6.47
2022-12-16T19:43:22.016Z,-6.48
2022-12-16T19:46:11.258Z,-6.56
2022-12-16T19:49:04.527Z,-6.63
2022-12-16T19:51:51.764Z,-6.65
2022-12-16T19:54:37.168Z,-6.81
2022-12-16T19:57:22.701Z,-6.90
2022-12-16T20:00:07.819Z,-6.88
2022-12-16T20:02:56.563Z,-6.71
2022-12-16T20:05:42.390Z,-6.76
2022-12-16T20:08:29.069Z,-6.86
2022-12-16T20:11:14.589Z,-6.79
2022-12-16T20:13:59.785Z,-6.82
2022-12-16T20:16:45.153Z,-6.92
2022-12-16T20:19:30.668Z,-7.03
2022-12-16T20:22:16.646Z,-7.03
2022-12-16T20:25:03.384Z,-7.12
2022-12-16T20:28:00.092Z,-7.11
2022-12-16T20:30:45.242Z,-7.04
2022-12-16T20:33:31.388Z,-7.17
2022-12-16T20:36:16.697Z,-7.22
2022-12-16T20:39:02.184Z,-7.23
2022-12-16T20:41:49.094Z,-7.24
2022-12-16T20:44:34.369Z,-7.22
2022-12-16T20:47:20.083Z,-7.30
2022-12-16T20:50:05.191Z,-7.39
2022-12-16T20:52:50.352Z,-7.43
2022-12-16T20:55:38.670Z,-7.56
2022-12-16T20:58:25.150Z,-7.57
2022-12-16T21:01:10.892Z,-7.42
2022-12-16T21:03:56.649Z,-7.36
2022-12-16T21:06:42.128Z,-7.45
2022-12-16T21:09:27.739Z,-7.48
2022-12-16T21:12:13.022Z,-7.54
2022-12-16T21:14:59.429Z,-7.66
2022-12-16T21:17:44.742Z,-7.66
2022-12-16T21:20:30.099Z,-7.68
2022-12-16T21:23:27.365Z,-7.85
2022-12-16T21:26:12.826Z,-7.89
2022-12-16T21:28:58.127Z,-7.87
2022-12-16T21:31:52.065Z,-7.81
2022-12-16T21:34:38.682Z,-7.73
2022-12-16T21:37:24.544Z,-7.69
2022-12-16T21:40:09.603Z,-7.76
2022-12-16T21:42:56.369Z,-7.72
2022-12-16T21:45:41.866Z,-7.84
2022-12-16T21:48:32.919Z,-7.92
2022-12-16T21:51:18.160Z,-7.93
2022-12-16T21:54:08.015Z,-7.79
2022-12-16T21:56:56.476Z,-7.79
2022-12-16T21:59:44.801Z,-7.95
2022-12-16T22:02:31.081Z,-8.10
2022-12-16T22:05:20.680Z,-8.19
2022-12-16T22:08:06.161Z,-8.29
2022-12-16T22:10:51.459Z,-8.31
2022-12-16T22:13:37.863Z,-8.25
2022-12-16T22:16:24.104Z,-8.28
2022-12-16T22:19:11.793Z,-8.39
2022-12-16T22:22:00.169Z,-8.46
2022-12-16T22:24:46.648Z,-8.39
2022-12-16T22:27:33.362Z,-8.35
2022-12-16T22:30:18.427Z,-8.30
2022-12-16T22:33:05.086Z,-8.31
2022-12-16T22:35:50.461Z,-8.35
2022-12-16T22:38:37.149Z,-8.35
2022-12-16T22:41:23.911Z,-8.41
2022-12-16T22:44:09.289Z,-8.46
2022-12-16T22:50:11.352Z,-8.56
2022-12-16T22:52:58.626Z,-8.56
2022-12-16T22:56:01.932Z,-8.65
2022-12-16T22:58:57.220Z,-8.61
2022-12-16T23:01:42.729Z,-8.60
2022-12-16T23:04:29.041Z,-8.54
2022-12-16T23:07:14.169Z,-8.58
2022-12-16T23:10:02.716Z,-8.61
2022-12-16T23:12:49.061Z,-8.63
2022-12-16T23:15:34.506Z,-8.64
2022-12-16T23:18:21.920Z,-8.61
2022-12-16T23:21:07.959Z,-8.84
2022-12-16T23:23:53.664Z,-8.94
2022-12-16T23:26:42.501Z,-8.95
2022-12-16T23:29:29.064Z,-8.94
2022-12-16T23:32:14.531Z,-8.94
2022-12-16T23:35:00.017Z,-8.96
2022-12-16T23:37:45.323Z,-8.88
2022-12-16T23:40:30.456Z,-8.78
2022-12-16T23:43:18.139Z,-8.72
2022-12-16T23:46:04.738Z,-8.75
2022-12-16T23:48:50.035Z,-8.89
2022-12-16T23:51:35.226Z,-8.95
2022-12-16T23:54:20.498Z,-9.13
2022-12-16T23:57:05.865Z,-9.06
2022-12-16T23:59:51.074Z,-8.95
